Ducos, Argentina
Current Conditions -  °F | °C
As of 4:00 AM on Thursday 18 Dec 2014 (Local Time) from SAZM Reporting Station
Clear Clear  
Wind Chill:   Ceiling: Unl
Heat Index:   Visibility: 5mi
Dew Point:   Wind: 2mph
Humidity: 93%   Direction: 320°NW
Pressure: 29.85"   Gusts: NA
Location:  37.47°S, 62.42°W
Report Text: SAZM 180700Z 32002KT 8000 NSC 09/08 Q1011
Loading
Personal Weather Stations






























Interactive Weather Map New forecast layout! Learn more

10-Day Weather Forecast

Advertisements
Track Severe Weather on mobile